sensor_id;sensor_type;location;lat;lon;timestamp;temperature;humidity
21001;DHT22;10658;50.920;12.238;2022-10-17T00:03:36;13.20;99.90
21001;DHT22;10658;50.920;12.238;2022-10-17T00:07:37;13.20;99.90
21001;DHT22;10658;50.920;12.238;2022-10-17T00:11:38;13.20;99.90
21001;DHT22;10658;50.920;12.238;2022-10-17T00:15:42;13.20;99.90
21001;DHT22;10658;50.920;12.238;2022-10-17T00:19:43;13.10;99.90
21001;DHT22;10658;50.920;12.238;2022-10-17T00:23:45;13.00;99.90
21001;DHT22;10658;50.920;12.238;2022-10-17T00:27:46;13.00;99.90
21001;DHT22;10658;50.920;12.238;2022-10-17T00:31:48;12.90;99.90
21001;DHT22;10658;50.920;12.238;2022-10-17T00:35:49;12.90;99.90
21001;DHT22;10658;50.920;12.238;2022-10-17T00:39:50;12.90;99.90
21001;DHT22;10658;50.920;12.238;2022-10-17T00:44:01;12.80;99.90
21001;DHT22;10658;50.920;12.238;2022-10-17T00:48:04;12.80;99.90
21001;DHT22;10658;50.920;12.238;2022-10-17T00:52:15;12.80;99.90
21001;DHT22;10658;50.920;12.238;2022-10-17T00:56:19;12.90;99.90
21001;DHT22;10658;50.920;12.238;2022-10-17T01:00:21;12.80;99.90
21001;DHT22;10658;50.920;12.238;2022-10-17T01:04:23;12.70;99.90
21001;DHT22;10658;50.920;12.238;2022-10-17T01:08:26;12.70;99.90
21001;DHT22;10658;50.920;12.238;2022-10-17T01:34:54;12.40;99.90
21001;DHT22;10658;50.920;12.238;2022-10-17T01:47:25;12.30;99.90
21001;DHT22;10658;50.920;12.238;2022-10-17T01:51:36;12.30;99.90
21001;DHT22;10658;50.920;12.238;2022-10-17T01:55:41;12.30;99.90
21001;DHT22;10658;50.920;12.238;2022-10-17T01:59:46;12.40;99.90
21001;DHT22;10658;50.920;12.238;2022-10-17T02:03:50;12.30;99.90
21001;DHT22;10658;50.920;12.238;2022-10-17T02:07:52;12.40;99.90
21001;DHT22;10658;50.920;12.238;2022-10-17T02:12:03;12.40;99.90
21001;DHT22;10658;50.920;12.238;2022-10-17T02:28:46;12.40;99.90
21001;DHT22;10658;50.920;12.238;2022-10-17T02:33:17;12.50;99.90
21001;DHT22;10658;50.920;12.238;2022-10-17T02:37:27;13.00;99.90
21001;DHT22;10658;50.920;12.238;2022-10-17T02:41:29;13.30;99.90
21001;DHT22;10658;50.920;12.238;2022-10-17T02:45:32;13.20;99.90
21001;DHT22;10658;50.920;12.238;2022-10-17T02:49:40;13.10;99.90
21001;DHT22;10658;50.920;12.238;2022-10-17T02:53:57;13.00;99.90
21001;DHT22;10658;50.920;12.238;2022-10-17T02:58:20;12.90;99.90
21001;DHT22;10658;50.920;12.238;2022-10-17T03:02:23;12.70;99.90
21001;DHT22;10658;50.920;12.238;2022-10-17T03:06:25;12.60;99.90
21001;DHT22;10658;50.920;12.238;2022-10-17T03:10:27;12.60;99.90
21001;DHT22;10658;50.920;12.238;2022-10-17T03:14:28;12.80;99.90
21001;DHT22;10658;50.920;12.238;2022-10-17T03:18:29;13.30;99.90
21001;DHT22;10658;50.920;12.238;2022-10-17T03:22:34;13.50;99.90
21001;DHT22;10658;50.920;12.238;2022-10-17T03:26:37;13.60;99.90
21001;DHT22;10658;50.920;12.238;2022-10-17T03:30:38;14.00;99.90
21001;DHT22;10658;50.920;12.238;2022-10-17T03:34:40;14.00;99.90
21001;DHT22;10658;50.920;12.238;2022-10-17T03:38:44;13.90;99.90
21001;DHT22;10658;50.920;12.238;2022-10-17T03:42:45;13.60;99.90
21001;DHT22;10658;50.920;12.238;2022-10-17T03:46:46;13.40;99.90
21001;DHT22;10658;50.920;12.238;2022-10-17T03:50:49;13.10;99.90
21001;DHT22;10658;50.920;12.238;2022-10-17T03:54:49;12.90;99.90
21001;DHT22;10658;50.920;12.238;2022-10-17T03:58:53;12.80;99.90
21001;DHT22;10658;50.920;12.238;2022-10-17T04:02:56;12.70;99.90
21001;DHT22;10658;50.920;12.238;2022-10-17T04:06:59;12.60;99.90
21001;DHT22;10658;50.920;12.238;2022-10-17T04:11:03;12.50;99.90
21001;DHT22;10658;50.920;12.238;2022-10-17T04:15:06;12.50;99.90
21001;DHT22;10658;50.920;12.238;2022-10-17T04:19:11;12.40;99.90
21001;DHT22;10658;50.920;12.238;2022-10-17T04:23:16;12.40;99.90
21001;DHT22;10658;50.920;12.238;2022-10-17T04:27:18;12.30;99.90
21001;DHT22;10658;50.920;12.238;2022-10-17T04:31:20;12.30;99.90
21001;DHT22;10658;50.920;12.238;2022-10-17T04:35:37;12.30;99.90
21001;DHT22;10658;50.920;12.238;2022-10-17T04:39:41;12.20;99.90
21001;DHT22;10658;50.920;12.238;2022-10-17T04:43:42;12.10;99.90
21001;DHT22;10658;50.920;12.238;2022-10-17T04:47:45;12.10;99.90
21001;DHT22;10658;50.920;12.238;2022-10-17T04:51:46;12.10;99.90
21001;DHT22;10658;50.920;12.238;2022-10-17T04:55:52;12.10;99.90
21001;DHT22;10658;50.920;12.238;2022-10-17T04:59:53;12.00;99.90
21001;DHT22;10658;50.920;12.238;2022-10-17T05:04:13;11.90;99.90
21001;DHT22;10658;50.920;12.238;2022-10-17T05:08:14;11.80;99.90
21001;DHT22;10658;50.920;12.238;2022-10-17T05:12:15;11.80;99.90
21001;DHT22;10658;50.920;12.238;2022-10-17T05:16:19;11.80;99.90
21001;DHT22;10658;50.920;12.238;2022-10-17T05:20:21;11.80;99.90
21001;DHT22;10658;50.920;12.238;2022-10-17T05:24:22;11.80;99.90
21001;DHT22;10658;50.920;12.238;2022-10-17T05:28:25;11.80;99.90
21001;DHT22;10658;50.920;12.238;2022-10-17T05:32:28;11.70;99.90
21001;DHT22;10658;50.920;12.238;2022-10-17T05:36:30;11.60;99.90
21001;DHT22;10658;50.920;12.238;2022-10-17T05:40:33;11.50;99.90
21001;DHT22;10658;50.920;12.238;2022-10-17T05:44:34;11.40;99.90
21001;DHT22;10658;50.920;12.238;2022-10-17T05:48:36;11.30;99.90
21001;DHT22;10658;50.920;12.238;2022-10-17T05:52:38;11.40;99.90
21001;DHT22;10658;50.920;12.238;2022-10-17T05:56:44;11.40;99.90
21001;DHT22;10658;50.920;12.238;2022-10-17T06:00:46;11.40;99.90
21001;DHT22;10658;50.920;12.238;2022-10-17T06:04:46;11.40;99.90
21001;DHT22;10658;50.920;12.238;2022-10-17T06:08:49;11.40;99.90
21001;DHT22;10658;50.920;12.238;2022-10-17T06:12:56;11.40;99.90
21001;DHT22;10658;50.920;12.238;2022-10-17T06:16:57;11.50;99.90
21001;DHT22;10658;50.920;12.238;2022-10-17T06:21:08;11.70;99.90
21001;DHT22;10658;50.920;12.238;2022-10-17T06:25:12;11.80;99.90
21001;DHT22;10658;50.920;12.238;2022-10-17T06:29:13;12.00;99.90
21001;DHT22;10658;50.920;12.238;2022-10-17T06:33:19;12.30;99.90
21001;DHT22;10658;50.920;12.238;2022-10-17T06:37:21;12.60;99.90
21001;DHT22;10658;50.920;12.238;2022-10-17T06:41:23;12.90;99.90
21001;DHT22;10658;50.920;12.238;2022-10-17T06:45:27;13.10;99.90
21001;DHT22;10658;50.920;12.238;2022-10-17T06:49:49;13.20;99.90
21001;DHT22;10658;50.920;12.238;2022-10-17T06:54:15;13.40;99.90
21001;DHT22;10658;50.920;12.238;2022-10-17T06:58:16;13.90;99.90
21001;DHT22;10658;50.920;12.238;2022-10-17T07:02:45;14.30;99.90
21001;DHT22;10658;50.920;12.238;2022-10-17T07:06:46;14.90;99.90
21001;DHT22;10658;50.920;12.238;2022-10-17T07:10:55;15.20;99.90
21001;DHT22;10658;50.920;12.238;2022-10-17T07:14:56;15.40;99.90
21001;DHT22;10658;50.920;12.238;2022-10-17T07:18:58;15.70;99.90
21001;DHT22;10658;50.920;12.238;2022-10-17T07:22:59;16.10;99.90
21001;DHT22;10658;50.920;12.238;2022-10-17T07:27:00;16.30;99.90
21001;DHT22;10658;50.920;12.238;2022-10-17T07:31:06;16.60;99.90
21001;DHT22;10658;50.920;12.238;2022-10-17T07:35:09;16.80;99.90
21001;DHT22;10658;50.920;12.238;2022-10-17T07:39:12;16.90;99.90
21001;DHT22;10658;50.920;12.238;2022-10-17T07:43:14;17.10;99.90
21001;DHT22;10658;50.920;12.238;2022-10-17T07:47:16;17.20;99.90
21001;DHT22;10658;50.920;12.238;2022-10-17T07:51:18;17.40;99.90
21001;DHT22;10658;50.920;12.238;2022-10-17T07:55:20;17.60;99.90
21001;DHT22;10658;50.920;12.238;2022-10-17T07:59:20;17.70;99.90
21001;DHT22;10658;50.920;12.238;2022-10-17T08:03:22;18.10;99.90
21001;DHT22;10658;50.920;12.238;2022-10-17T08:07:23;18.40;99.90
21001;DHT22;10658;50.920;12.238;2022-10-17T08:11:24;18.60;99.90
21001;DHT22;10658;50.920;12.238;2022-10-17T08:15:25;18.70;99.90
21001;DHT22;10658;50.920;12.238;2022-10-17T08:19:27;19.00;99.90
21001;DHT22;10658;50.920;12.238;2022-10-17T08:27:45;19.70;99.90
21001;DHT22;10658;50.920;12.238;2022-10-17T08:31:46;20.00;99.90
21001;DHT22;10658;50.920;12.238;2022-10-17T08:35:47;20.10;99.90
21001;DHT22;10658;50.920;12.238;2022-10-17T08:39:48;20.40;99.90
21001;DHT22;10658;50.920;12.238;2022-10-17T08:44:02;20.50;99.90
21001;DHT22;10658;50.920;12.238;2022-10-17T08:48:11;20.80;99.90
21001;DHT22;10658;50.920;12.238;2022-10-17T08:52:35;20.90;99.90
21001;DHT22;10658;50.920;12.238;2022-10-17T08:56:48;20.90;99.90
21001;DHT22;10658;50.920;12.238;2022-10-17T09:01:02;21.20;99.90
21001;DHT22;10658;50.920;12.238;2022-10-17T09:05:20;21.30;99.90
21001;DHT22;10658;50.920;12.238;2022-10-17T09:18:28;21.50;99.90
21001;DHT22;10658;50.920;12.238;2022-10-17T09:27:02;21.80;99.90
21001;DHT22;10658;50.920;12.238;2022-10-17T09:35:27;22.00;99.90
21001;DHT22;10658;50.920;12.238;2022-10-17T09:39:30;22.20;99.90
21001;DHT22;10658;50.920;12.238;2022-10-17T09:43:33;22.30;99.90
21001;DHT22;10658;50.920;12.238;2022-10-17T09:47:40;22.20;99.90
21001;DHT22;10658;50.920;12.238;2022-10-17T09:51:43;22.50;99.90
21001;DHT22;10658;50.920;12.238;2022-10-17T09:55:48;22.70;99.90
21001;DHT22;10658;50.920;12.238;2022-10-17T10:00:03;22.80;99.90
21001;DHT22;10658;50.920;12.238;2022-10-17T10:04:15;23.00;99.90
21001;DHT22;10658;50.920;12.238;2022-10-17T10:08:26;23.00;99.90
21001;DHT22;10658;50.920;12.238;2022-10-17T10:12:30;23.10;99.90
21001;DHT22;10658;50.920;12.238;2022-10-17T10:16:40;23.20;99.90
21001;DHT22;10658;50.920;12.238;2022-10-17T10:20:42;23.10;99.90
21001;DHT22;10658;50.920;12.238;2022-10-17T10:25:15;23.30;99.90
21001;DHT22;10658;50.920;12.238;2022-10-17T10:29:29;23.50;99.90
21001;DHT22;10658;50.920;12.238;2022-10-17T10:33:35;23.70;99.90
21001;DHT22;10658;50.920;12.238;2022-10-17T10:37:40;23.80;99.90
21001;DHT22;10658;50.920;12.238;2022-10-17T10:41:46;24.10;99.90
21001;DHT22;10658;50.920;12.238;2022-10-17T10:45:48;24.40;99.90
21001;DHT22;10658;50.920;12.238;2022-10-17T10:50:07;25.10;99.90
21001;DHT22;10658;50.920;12.238;2022-10-17T10:58:33;25.70;99.90
21001;DHT22;10658;50.920;12.238;2022-10-17T11:02:45;25.70;99.90
21001;DHT22;10658;50.920;12.238;2022-10-17T11:06:52;25.60;99.90
21001;DHT22;10658;50.920;12.238;2022-10-17T11:11:10;25.60;99.90
21001;DHT22;10658;50.920;12.238;2022-10-17T11:15:46;25.40;99.90
21001;DHT22;10658;50.920;12.238;2022-10-17T11:28:18;25.80;99.90
21001;DHT22;10658;50.920;12.238;2022-10-17T11:36:39;25.90;99.90
21001;DHT22;10658;50.920;12.238;2022-10-17T11:40:45;25.80;99.90
21001;DHT22;10658;50.920;12.238;2022-10-17T11:44:52;25.80;99.90
21001;DHT22;10658;50.920;12.238;2022-10-17T11:49:11;25.80;99.90
21001;DHT22;10658;50.920;12.238;2022-10-17T11:53:22;25.60;99.90
21001;DHT22;10658;50.920;12.238;2022-10-17T12:01:40;25.20;99.90
21001;DHT22;10658;50.920;12.238;2022-10-17T12:14:35;24.80;99.90
21001;DHT22;10658;50.920;12.238;2022-10-17T12:18:36;24.70;99.90
21001;DHT22;10658;50.920;12.238;2022-10-17T12:22:45;24.70;99.90
21001;DHT22;10658;50.920;12.238;2022-10-17T12:26:46;24.60;99.90
21001;DHT22;10658;50.920;12.238;2022-10-17T12:30:53;24.70;99.90
21001;DHT22;10658;50.920;12.238;2022-10-17T12:34:56;24.70;99.90
21001;DHT22;10658;50.920;12.238;2022-10-17T12:51:18;24.60;99.90
21001;DHT22;10658;50.920;12.238;2022-10-17T12:55:24;24.60;99.90
21001;DHT22;10658;50.920;12.238;2022-10-17T12:59:27;24.70;99.90
21001;DHT22;10658;50.920;12.238;2022-10-17T13:03:32;24.80;99.90
21001;DHT22;10658;50.920;12.238;2022-10-17T13:07:35;24.80;99.90
21001;DHT22;10658;50.920;12.238;2022-10-17T13:11:38;24.70;99.90
21001;DHT22;10658;50.920;12.238;2022-10-17T13:15:48;24.60;99.90
21001;DHT22;10658;50.920;12.238;2022-10-17T13:19:49;24.50;99.90
21001;DHT22;10658;50.920;12.238;2022-10-17T13:23:51;24.50;99.90
21001;DHT22;10658;50.920;12.238;2022-10-17T13:28:11;24.40;99.90
21001;DHT22;10658;50.920;12.238;2022-10-17T13:32:12;24.40;99.90
21001;DHT22;10658;50.920;12.238;2022-10-17T13:36:14;24.30;99.90
21001;DHT22;10658;50.920;12.238;2022-10-17T13:40:22;24.30;99.90
21001;DHT22;10658;50.920;12.238;2022-10-17T13:44:26;24.20;99.90
21001;DHT22;10658;50.920;12.238;2022-10-17T13:48:29;24.10;99.90
21001;DHT22;10658;50.920;12.238;2022-10-17T13:52:31;24.10;99.90
21001;DHT22;10658;50.920;12.238;2022-10-17T13:56:33;24.10;99.90
21001;DHT22;10658;50.920;12.238;2022-10-17T14:00:34;24.10;99.90
21001;DHT22;10658;50.920;12.238;2022-10-17T14:04:36;24.10;99.90
21001;DHT22;10658;50.920;12.238;2022-10-17T14:08:38;24.00;99.90
21001;DHT22;10658;50.920;12.238;2022-10-17T14:12:45;23.80;99.90
21001;DHT22;10658;50.920;12.238;2022-10-17T14:16:47;23.80;99.90
21001;DHT22;10658;50.920;12.238;2022-10-17T14:20:49;23.80;99.90
21001;DHT22;10658;50.920;12.238;2022-10-17T14:24:51;23.70;99.90
21001;DHT22;10658;50.920;12.238;2022-10-17T14:29:05;23.80;99.90
21001;DHT22;10658;50.920;12.238;2022-10-17T14:33:14;23.70;99.90
21001;DHT22;10658;50.920;12.238;2022-10-17T14:37:41;23.70;99.90
21001;DHT22;10658;50.920;12.238;2022-10-17T14:41:47;23.70;99.90
21001;DHT22;10658;50.920;12.238;2022-10-17T14:45:49;23.80;99.90
21001;DHT22;10658;50.920;12.238;2022-10-17T14:50:21;23.80;99.90
21001;DHT22;10658;50.920;12.238;2022-10-17T14:54:25;24.00;99.90
21001;DHT22;10658;50.920;12.238;2022-10-17T14:58:30;24.50;99.90
21001;DHT22;10658;50.920;12.238;2022-10-17T15:02:32;24.90;99.90
21001;DHT22;10658;50.920;12.238;2022-10-17T15:06:33;25.10;99.90
21001;DHT22;10658;50.920;12.238;2022-10-17T15:10:36;24.90;99.90
21001;DHT22;10658;50.920;12.238;2022-10-17T15:14:37;24.70;99.90
21001;DHT22;10658;50.920;12.238;2022-10-17T15:18:38;24.50;99.90
21001;DHT22;10658;50.920;12.238;2022-10-17T15:22:39;24.10;99.90
21001;DHT22;10658;50.920;12.238;2022-10-17T15:26:40;23.70;99.90
21001;DHT22;10658;50.920;12.238;2022-10-17T15:30:41;23.30;99.90
21001;DHT22;10658;50.920;12.238;2022-10-17T15:34:42;23.00;99.90
21001;DHT22;10658;50.920;12.238;2022-10-17T15:38:43;22.60;99.90
21001;DHT22;10658;50.920;12.238;2022-10-17T15:42:44;22.30;99.90
21001;DHT22;10658;50.920;12.238;2022-10-17T15:46:45;22.10;99.90
21001;DHT22;10658;50.920;12.238;2022-10-17T15:50:46;21.90;99.90
21001;DHT22;10658;50.920;12.238;2022-10-17T15:54:48;21.60;99.90
21001;DHT22;10658;50.920;12.238;2022-10-17T15:58:50;21.40;99.90
21001;DHT22;10658;50.920;12.238;2022-10-17T16:02:51;21.20;99.90
21001;DHT22;10658;50.920;12.238;2022-10-17T16:06:52;21.00;99.90
21001;DHT22;10658;50.920;12.238;2022-10-17T16:10:54;20.80;99.90
21001;DHT22;10658;50.920;12.238;2022-10-17T16:14:56;20.60;99.90
21001;DHT22;10658;50.920;12.238;2022-10-17T16:18:58;20.40;99.90
21001;DHT22;10658;50.920;12.238;2022-10-17T16:22:59;20.30;99.90
21001;DHT22;10658;50.920;12.238;2022-10-17T16:27:02;20.10;99.90
21001;DHT22;10658;50.920;12.238;2022-10-17T16:31:03;19.90;99.90
21001;DHT22;10658;50.920;12.238;2022-10-17T16:35:05;19.70;99.90
21001;DHT22;10658;50.920;12.238;2022-10-17T16:39:07;19.50;99.90
21001;DHT22;10658;50.920;12.238;2022-10-17T16:43:12;19.40;99.90
21001;DHT22;10658;50.920;12.238;2022-10-17T16:47:14;19.30;99.90
21001;DHT22;10658;50.920;12.238;2022-10-17T16:51:15;19.10;99.90
21001;DHT22;10658;50.920;12.238;2022-10-17T16:55:18;18.80;99.90
21001;DHT22;10658;50.920;12.238;2022-10-17T16:59:18;18.60;99.90
21001;DHT22;10658;50.920;12.238;2022-10-17T17:03:20;18.50;99.90
21001;DHT22;10658;50.920;12.238;2022-10-17T17:07:21;18.50;99.90
21001;DHT22;10658;50.920;12.238;2022-10-17T17:11:26;18.40;99.90
21001;DHT22;10658;50.920;12.238;2022-10-17T17:15:27;18.30;99.90
21001;DHT22;10658;50.920;12.238;2022-10-17T17:19:28;18.20;99.90
21001;DHT22;10658;50.920;12.238;2022-10-17T17:23:32;18.10;99.90
21001;DHT22;10658;50.920;12.238;2022-10-17T17:31:50;18.00;99.90
21001;DHT22;10658;50.920;12.238;2022-10-17T17:35:59;18.00;99.90
21001;DHT22;10658;50.920;12.238;2022-10-17T17:40:00;18.00;99.90
21001;DHT22;10658;50.920;12.238;2022-10-17T17:44:02;17.90;99.90
21001;DHT22;10658;50.920;12.238;2022-10-17T17:48:03;17.90;99.90
21001;DHT22;10658;50.920;12.238;2022-10-17T17:52:04;17.80;99.90
21001;DHT22;10658;50.920;12.238;2022-10-17T17:56:11;17.90;99.90
21001;DHT22;10658;50.920;12.238;2022-10-17T18:00:14;18.00;99.90
21001;DHT22;10658;50.920;12.238;2022-10-17T18:04:15;17.90;99.90
21001;DHT22;10658;50.920;12.238;2022-10-17T18:08:17;17.80;99.90
21001;DHT22;10658;50.920;12.238;2022-10-17T18:12:18;17.80;99.90
21001;DHT22;10658;50.920;12.238;2022-10-17T18:16:20;17.70;99.90
21001;DHT22;10658;50.920;12.238;2022-10-17T18:20:21;17.60;99.90
21001;DHT22;10658;50.920;12.238;2022-10-17T18:24:23;17.50;99.90
21001;DHT22;10658;50.920;12.238;2022-10-17T18:28:24;17.40;99.90
21001;DHT22;10658;50.920;12.238;2022-10-17T18:32:29;17.30;99.90
21001;DHT22;10658;50.920;12.238;2022-10-17T18:36:31;17.20;99.90
21001;DHT22;10658;50.920;12.238;2022-10-17T18:40:33;17.10;99.90
21001;DHT22;10658;50.920;12.238;2022-10-17T18:44:44;16.90;99.90
21001;DHT22;10658;50.920;12.238;2022-10-17T18:48:47;16.80;99.90
21001;DHT22;10658;50.920;12.238;2022-10-17T18:52:48;16.80;99.90
21001;DHT22;10658;50.920;12.238;2022-10-17T18:56:51;16.60;99.90
21001;DHT22;10658;50.920;12.238;2022-10-17T19:00:53;16.50;99.90
21001;DHT22;10658;50.920;12.238;2022-10-17T19:04:54;16.50;99.90
21001;DHT22;10658;50.920;12.238;2022-10-17T19:08:55;16.30;99.90
21001;DHT22;10658;50.920;12.238;2022-10-17T19:12:57;16.10;99.90
21001;DHT22;10658;50.920;12.238;2022-10-17T19:16:59;15.90;99.90
21001;DHT22;10658;50.920;12.238;2022-10-17T19:21:02;15.70;99.90
21001;DHT22;10658;50.920;12.238;2022-10-17T19:25:05;15.70;99.90
21001;DHT22;10658;50.920;12.238;2022-10-17T19:29:06;15.80;99.90
21001;DHT22;10658;50.920;12.238;2022-10-17T19:33:08;15.80;99.90
21001;DHT22;10658;50.920;12.238;2022-10-17T19:37:09;15.80;99.90
21001;DHT22;10658;50.920;12.238;2022-10-17T19:41:13;15.80;99.90
21001;DHT22;10658;50.920;12.238;2022-10-17T19:45:14;15.90;99.90
21001;DHT22;10658;50.920;12.238;2022-10-17T19:49:16;15.90;99.90
21001;DHT22;10658;50.920;12.238;2022-10-17T19:53:17;15.70;99.90
21001;DHT22;10658;50.920;12.238;2022-10-17T19:57:19;15.60;99.90
21001;DHT22;10658;50.920;12.238;2022-10-17T20:01:23;15.40;99.90
21001;DHT22;10658;50.920;12.238;2022-10-17T20:05:25;15.20;99.90
21001;DHT22;10658;50.920;12.238;2022-10-17T20:09:26;15.10;99.90
21001;DHT22;10658;50.920;12.238;2022-10-17T20:13:27;14.90;99.90
21001;DHT22;10658;50.920;12.238;2022-10-17T20:17:29;15.00;99.90
21001;DHT22;10658;50.920;12.238;2022-10-17T20:21:30;15.00;99.90
21001;DHT22;10658;50.920;12.238;2022-10-17T20:25:34;15.10;99.90
21001;DHT22;10658;50.920;12.238;2022-10-17T20:29:37;15.30;99.90
21001;DHT22;10658;50.920;12.238;2022-10-17T20:33:38;15.40;99.90
21001;DHT22;10658;50.920;12.238;2022-10-17T20:37:41;15.30;99.90
21001;DHT22;10658;50.920;12.238;2022-10-17T20:41:43;15.30;99.90
21001;DHT22;10658;50.920;12.238;2022-10-17T20:45:44;15.20;99.90
21001;DHT22;10658;50.920;12.238;2022-10-17T20:49:45;15.10;99.90
21001;DHT22;10658;50.920;12.238;2022-10-17T20:53:47;15.00;99.90
21001;DHT22;10658;50.920;12.238;2022-10-17T20:57:52;15.00;99.90
21001;DHT22;10658;50.920;12.238;2022-10-17T21:01:53;14.90;99.90
21001;DHT22;10658;50.920;12.238;2022-10-17T21:05:54;14.80;99.90
21001;DHT22;10658;50.920;12.238;2022-10-17T21:09:55;14.80;99.90
21001;DHT22;10658;50.920;12.238;2022-10-17T21:14:03;14.80;99.90
21001;DHT22;10658;50.920;12.238;2022-10-17T21:18:05;14.70;99.90
21001;DHT22;10658;50.920;12.238;2022-10-17T21:22:07;14.70;99.90
21001;DHT22;10658;50.920;12.238;2022-10-17T21:26:09;14.60;99.90
21001;DHT22;10658;50.920;12.238;2022-10-17T21:30:12;14.60;99.90
21001;DHT22;10658;50.920;12.238;2022-10-17T21:34:20;14.60;99.90
21001;DHT22;10658;50.920;12.238;2022-10-17T21:38:21;14.70;99.90
21001;DHT22;10658;50.920;12.238;2022-10-17T21:42:22;14.70;99.90
21001;DHT22;10658;50.920;12.238;2022-10-17T21:46:24;14.60;99.90
21001;DHT22;10658;50.920;12.238;2022-10-17T21:50:25;14.60;99.90
21001;DHT22;10658;50.920;12.238;2022-10-17T21:54:27;14.60;99.90
21001;DHT22;10658;50.920;12.238;2022-10-17T21:58:28;14.60;99.90
21001;DHT22;10658;50.920;12.238;2022-10-17T22:02:30;14.60;99.90
21001;DHT22;10658;50.920;12.238;2022-10-17T22:06:34;14.70;99.90
21001;DHT22;10658;50.920;12.238;2022-10-17T22:10:36;14.70;99.90
21001;DHT22;10658;50.920;12.238;2022-10-17T22:14:37;14.70;99.90
21001;DHT22;10658;50.920;12.238;2022-10-17T22:18:39;14.60;99.90
21001;DHT22;10658;50.920;12.238;2022-10-17T22:22:40;14.50;99.90
21001;DHT22;10658;50.920;12.238;2022-10-17T22:26:42;14.50;99.90
21001;DHT22;10658;50.920;12.238;2022-10-17T22:30:44;14.60;99.90
21001;DHT22;10658;50.920;12.238;2022-10-17T22:34:45;14.50;99.90
21001;DHT22;10658;50.920;12.238;2022-10-17T22:38:47;14.50;99.90
21001;DHT22;10658;50.920;12.238;2022-10-17T22:42:48;14.50;99.90
21001;DHT22;10658;50.920;12.238;2022-10-17T22:46:48;14.50;99.90
21001;DHT22;10658;50.920;12.238;2022-10-17T22:50:51;14.40;99.90
21001;DHT22;10658;50.920;12.238;2022-10-17T22:54:52;14.40;99.90
21001;DHT22;10658;50.920;12.238;2022-10-17T22:58:54;14.30;99.90
21001;DHT22;10658;50.920;12.238;2022-10-17T23:02:55;14.30;99.90
21001;DHT22;10658;50.920;12.238;2022-10-17T23:06:56;14.40;99.90
21001;DHT22;10658;50.920;12.238;2022-10-17T23:10:58;14.40;99.90
21001;DHT22;10658;50.920;12.238;2022-10-17T23:14:59;14.30;99.90
21001;DHT22;10658;50.920;12.238;2022-10-17T23:19:00;14.20;99.90
21001;DHT22;10658;50.920;12.238;2022-10-17T23:23:02;14.00;99.90
21001;DHT22;10658;50.920;12.238;2022-10-17T23:27:04;13.90;99.90
21001;DHT22;10658;50.920;12.238;2022-10-17T23:31:16;13.60;99.90
21001;DHT22;10658;50.920;12.238;2022-10-17T23:35:17;13.60;99.90
21001;DHT22;10658;50.920;12.238;2022-10-17T23:43:36;13.60;99.90
21001;DHT22;10658;50.920;12.238;2022-10-17T23:47:37;13.70;99.90
21001;DHT22;10658;50.920;12.238;2022-10-17T23:51:39;13.60;99.90
21001;DHT22;10658;50.920;12.238;2022-10-17T23:55:40;13.50;99.90
21001;DHT22;10658;50.920;12.238;2022-10-17T23:59:41;13.40;99.90
